sensor_id;sensor_type;location;lat;lon;timestamp;pressure;altitude;pressure_sealevel;temperature;humidity
36304;BME280;22335;49.800;8.596;2023-05-18T00:05:07;101333.69;;;16.16;35.79
36304;BME280;22335;49.800;8.596;2023-05-18T00:11:52;101333.41;;;16.18;35.85
36304;BME280;22335;49.800;8.596;2023-05-18T00:18:37;101333.47;;;16.12;36.42
36304;BME280;22335;49.800;8.596;2023-05-18T00:25:20;101335.97;;;15.95;36.47
36304;BME280;22335;49.800;8.596;2023-05-18T00:32:04;101326.59;;;15.77;36.52
36304;BME280;22335;49.800;8.596;2023-05-18T00:38:52;101273.31;;;15.39;36.71
36304;BME280;22335;49.800;8.596;2023-05-18T00:45:35;101326.16;;;15.70;36.76
36304;BME280;22335;49.800;8.596;2023-05-18T00:52:19;101312.81;;;15.53;36.86
36304;BME280;22335;49.800;8.596;2023-05-18T00:59:04;101322.13;;;15.38;37.26
36304;BME280;22335;49.800;8.596;2023-05-18T01:05:47;101326.63;;;15.29;37.28
36304;BME280;22335;49.800;8.596;2023-05-18T01:12:39;101300.31;;;14.99;37.81
36304;BME280;22335;49.800;8.596;2023-05-18T01:27:00;101304.69;;;14.76;38.43
36304;BME280;22335;49.800;8.596;2023-05-18T01:33:47;101172.88;;;13.87;38.11
36304;BME280;22335;49.800;8.596;2023-05-18T01:40:35;101327.19;;;14.83;38.43
36304;BME280;22335;49.800;8.596;2023-05-18T01:47:24;101263.66;;;14.45;38.68
36304;BME280;22335;49.800;8.596;2023-05-18T01:54:10;101268.97;;;14.37;38.70
36304;BME280;22335;49.800;8.596;2023-05-18T02:00:55;101267.69;;;14.29;39.08
36304;BME280;22335;49.800;8.596;2023-05-18T02:07:40;101318.94;;;14.54;38.97
36304;BME280;22335;49.800;8.596;2023-05-18T02:14:28;101321.00;;;14.38;39.07
36304;BME280;22335;49.800;8.596;2023-05-18T02:21:12;101264.94;;;14.00;39.35
36304;BME280;22335;49.800;8.596;2023-05-18T02:27:57;101303.50;;;14.24;39.53
36304;BME280;22335;49.800;8.596;2023-05-18T02:34:41;101314.56;;;14.19;39.91
36304;BME280;22335;49.800;8.596;2023-05-18T02:41:26;101284.56;;;13.88;40.22
36304;BME280;22335;49.800;8.596;2023-05-18T03:03:13;101306.69;;;13.63;40.76
36304;BME280;22335;49.800;8.596;2023-05-18T03:10:01;101308.47;;;13.43;41.30
36304;BME280;22335;49.800;8.596;2023-05-18T03:16:46;101259.47;;;13.01;41.35
36304;BME280;22335;49.800;8.596;2023-05-18T03:23:36;101316.78;;;13.28;41.27
36304;BME280;22335;49.800;8.596;2023-05-18T03:30:20;101324.78;;;13.14;41.43
36304;BME280;22335;49.800;8.596;2023-05-18T03:37:04;101328.66;;;13.08;41.75
36304;BME280;22335;49.800;8.596;2023-05-18T03:43:49;101326.78;;;12.98;42.15
36304;BME280;22335;49.800;8.596;2023-05-18T03:50:33;101342.13;;;12.99;41.87
36304;BME280;22335;49.800;8.596;2023-05-18T03:57:17;101341.34;;;12.83;42.42
36304;BME280;22335;49.800;8.596;2023-05-18T04:04:02;101353.69;;;12.91;42.57
36304;BME280;22335;49.800;8.596;2023-05-18T04:10:46;101351.75;;;12.97;42.41
36304;BME280;22335;49.800;8.596;2023-05-18T04:17:29;101357.28;;;12.86;42.58
36304;BME280;22335;49.800;8.596;2023-05-18T04:24:15;101359.19;;;12.76;42.95
36304;BME280;22335;49.800;8.596;2023-05-18T04:31:00;101364.97;;;12.69;42.60
36304;BME280;22335;49.800;8.596;2023-05-18T04:37:43;101359.78;;;12.47;43.32
36304;BME280;22335;49.800;8.596;2023-05-18T04:44:32;101337.03;;;12.31;43.41
36304;BME280;22335;49.800;8.596;2023-05-18T04:51:18;101377.63;;;12.55;43.47
36304;BME280;22335;49.800;8.596;2023-05-18T04:58:03;101304.38;;;12.19;43.55
36304;BME280;22335;49.800;8.596;2023-05-18T05:04:48;101373.22;;;12.69;43.55
36304;BME280;22335;49.800;8.596;2023-05-18T05:11:31;101381.97;;;12.81;43.34
36304;BME280;22335;49.800;8.596;2023-05-18T05:18:15;101388.81;;;12.99;43.60
36304;BME280;22335;49.800;8.596;2023-05-18T05:25:00;101380.53;;;13.25;43.05
36304;BME280;22335;49.800;8.596;2023-05-18T05:31:46;101384.88;;;13.41;43.33
36304;BME280;22335;49.800;8.596;2023-05-18T05:38:30;101328.31;;;13.30;42.70
36304;BME280;22335;49.800;8.596;2023-05-18T05:45:15;101386.31;;;13.83;42.77
36304;BME280;22335;49.800;8.596;2023-05-18T05:52:06;101394.41;;;14.08;42.52
36304;BME280;22335;49.800;8.596;2023-05-18T05:58:50;101393.97;;;14.30;42.28
36304;BME280;22335;49.800;8.596;2023-05-18T06:05:35;101394.09;;;14.55;42.38
36304;BME280;22335;49.800;8.596;2023-05-18T06:12:22;101406.56;;;14.76;42.19
36304;BME280;22335;49.800;8.596;2023-05-18T06:19:06;101361.69;;;14.75;41.40
36304;BME280;22335;49.800;8.596;2023-05-18T06:25:51;101396.59;;;15.09;41.64
36304;BME280;22335;49.800;8.596;2023-05-18T06:32:57;101401.28;;;15.33;41.29
36304;BME280;22335;49.800;8.596;2023-05-18T06:39:41;101380.66;;;15.30;41.08
36304;BME280;22335;49.800;8.596;2023-05-18T06:46:26;101379.53;;;15.31;41.04
36304;BME280;22335;49.800;8.596;2023-05-18T06:53:13;101402.34;;;15.61;40.39
36304;BME280;22335;49.800;8.596;2023-05-18T06:59:58;101387.66;;;15.65;40.64
36304;BME280;22335;49.800;8.596;2023-05-18T07:06:45;101401.81;;;16.02;40.19
36304;BME280;22335;49.800;8.596;2023-05-18T07:13:29;101359.69;;;15.96;39.92
36304;BME280;22335;49.800;8.596;2023-05-18T07:20:12;101404.03;;;16.37;39.59
36304;BME280;22335;49.800;8.596;2023-05-18T07:26:57;101388.72;;;16.45;39.58
36304;BME280;22335;49.800;8.596;2023-05-18T07:33:43;101335.44;;;16.12;39.39
36304;BME280;22335;49.800;8.596;2023-05-18T07:40:26;101386.78;;;16.78;39.27
36304;BME280;22335;49.800;8.596;2023-05-18T07:47:12;101386.22;;;16.95;39.14
36304;BME280;22335;49.800;8.596;2023-05-18T07:53:56;101391.03;;;17.03;39.04
36304;BME280;22335;49.800;8.596;2023-05-18T08:00:39;101386.75;;;17.25;38.81
36304;BME280;22335;49.800;8.596;2023-05-18T08:07:27;101377.94;;;17.37;38.79
36304;BME280;22335;49.800;8.596;2023-05-18T08:14:11;101384.97;;;17.70;38.43
36304;BME280;22335;49.800;8.596;2023-05-18T08:20:54;101394.28;;;17.88;38.18
36304;BME280;22335;49.800;8.596;2023-05-18T08:27:39;101328.81;;;17.70;37.93
36304;BME280;22335;49.800;8.596;2023-05-18T08:34:22;101374.22;;;18.19;37.75
36304;BME280;22335;49.800;8.596;2023-05-18T08:41:11;101361.97;;;18.42;37.64
36304;BME280;22335;49.800;8.596;2023-05-18T08:48:02;101357.81;;;18.76;37.69
36304;BME280;22335;49.800;8.596;2023-05-18T08:54:50;101349.50;;;19.16;37.06
36304;BME280;22335;49.800;8.596;2023-05-18T09:01:35;101350.41;;;19.43;36.70
36304;BME280;22335;49.800;8.596;2023-05-18T09:08:20;101340.38;;;19.64;35.97
36304;BME280;22335;49.800;8.596;2023-05-18T09:15:06;101336.47;;;19.74;36.61
36304;BME280;22335;49.800;8.596;2023-05-18T09:21:50;101342.34;;;19.90;35.86
36304;BME280;22335;49.800;8.596;2023-05-18T09:28:36;101319.78;;;20.09;35.21
36304;BME280;22335;49.800;8.596;2023-05-18T09:35:23;101270.81;;;20.04;34.84
36304;BME280;22335;49.800;8.596;2023-05-18T09:42:07;101308.13;;;20.59;34.31
36304;BME280;22335;49.800;8.596;2023-05-18T09:48:53;101307.59;;;20.65;34.02
36304;BME280;22335;49.800;8.596;2023-05-18T09:55:44;101301.88;;;20.70;33.65
36304;BME280;22335;49.800;8.596;2023-05-18T10:02:29;101280.53;;;20.92;33.29
36304;BME280;22335;49.800;8.596;2023-05-18T10:09:15;101292.75;;;21.29;32.73
36304;BME280;22335;49.800;8.596;2023-05-18T10:15:59;101289.53;;;21.48;33.54
36304;BME280;22335;49.800;8.596;2023-05-18T10:22:45;101290.91;;;21.84;32.82
36304;BME280;22335;49.800;8.596;2023-05-18T10:29:31;101273.34;;;22.04;32.29
36304;BME280;22335;49.800;8.596;2023-05-18T10:36:16;101282.38;;;22.22;31.68
36304;BME280;22335;49.800;8.596;2023-05-18T10:43:00;101268.81;;;22.00;31.34
36304;BME280;22335;49.800;8.596;2023-05-18T10:49:47;101223.59;;;21.82;31.37
36304;BME280;22335;49.800;8.596;2023-05-18T10:56:31;101229.72;;;22.08;30.53
36304;BME280;22335;49.800;8.596;2023-05-18T11:03:18;101260.75;;;22.19;30.20
36304;BME280;22335;49.800;8.596;2023-05-18T11:10:08;101245.25;;;22.43;30.24
36304;BME280;22335;49.800;8.596;2023-05-18T11:16:53;101245.28;;;22.55;29.55
36304;BME280;22335;49.800;8.596;2023-05-18T11:23:37;101243.75;;;22.70;29.71
36304;BME280;22335;49.800;8.596;2023-05-18T11:30:27;101233.09;;;22.84;29.36
36304;BME280;22335;49.800;8.596;2023-05-18T11:37:12;101202.78;;;22.95;29.06
36304;BME280;22335;49.800;8.596;2023-05-18T11:44:15;101217.34;;;23.29;28.90
36304;BME280;22335;49.800;8.596;2023-05-18T11:51:01;101222.53;;;23.55;28.63
36304;BME280;22335;49.800;8.596;2023-05-18T11:57:51;101220.81;;;23.66;28.72
36304;BME280;22335;49.800;8.596;2023-05-18T12:04:35;101216.66;;;23.60;28.80
36304;BME280;22335;49.800;8.596;2023-05-18T12:11:25;101207.56;;;23.63;28.46
36304;BME280;22335;49.800;8.596;2023-05-18T12:18:09;101207.13;;;23.73;28.29
36304;BME280;22335;49.800;8.596;2023-05-18T12:24:53;101198.66;;;23.69;28.27
36304;BME280;22335;49.800;8.596;2023-05-18T12:31:39;101197.34;;;23.95;27.72
36304;BME280;22335;49.800;8.596;2023-05-18T12:38:24;101190.16;;;24.10;28.24
36304;BME280;22335;49.800;8.596;2023-05-18T12:45:09;101191.22;;;24.05;27.47
36304;BME280;22335;49.800;8.596;2023-05-18T12:51:54;101175.72;;;24.08;27.08
36304;BME280;22335;49.800;8.596;2023-05-18T12:58:38;101181.50;;;24.15;27.12
36304;BME280;22335;49.800;8.596;2023-05-18T13:05:23;101134.91;;;24.03;27.46
36304;BME280;22335;49.800;8.596;2023-05-18T13:12:08;101104.97;;;24.04;27.18
36304;BME280;22335;49.800;8.596;2023-05-18T13:18:57;101167.50;;;24.31;26.68
36304;BME280;22335;49.800;8.596;2023-05-18T13:25:42;101150.84;;;24.34;26.81
36304;BME280;22335;49.800;8.596;2023-05-18T13:32:27;101140.84;;;24.49;26.68
36304;BME280;22335;49.800;8.596;2023-05-18T13:39:11;101158.44;;;24.66;26.67
36304;BME280;22335;49.800;8.596;2023-05-18T13:45:56;101139.75;;;24.54;26.47
36304;BME280;22335;49.800;8.596;2023-05-18T13:52:41;101130.00;;;24.64;26.38
36304;BME280;22335;49.800;8.596;2023-05-18T13:59:24;101115.34;;;24.70;26.45
36304;BME280;22335;49.800;8.596;2023-05-18T14:06:08;101121.22;;;24.81;26.29
36304;BME280;22335;49.800;8.596;2023-05-18T14:12:53;101112.59;;;24.90;25.83
36304;BME280;22335;49.800;8.596;2023-05-18T14:19:36;101084.34;;;24.59;25.86
36304;BME280;22335;49.800;8.596;2023-05-18T14:26:20;101115.28;;;24.67;26.17
36304;BME280;22335;49.800;8.596;2023-05-18T14:33:05;101100.38;;;24.78;25.63
36304;BME280;22335;49.800;8.596;2023-05-18T14:39:48;101096.88;;;24.66;26.02
36304;BME280;22335;49.800;8.596;2023-05-18T14:46:32;101097.97;;;24.61;26.10
36304;BME280;22335;49.800;8.596;2023-05-18T14:53:17;101091.06;;;24.74;25.63
36304;BME280;22335;49.800;8.596;2023-05-18T15:00:00;101097.31;;;24.68;25.43
36304;BME280;22335;49.800;8.596;2023-05-18T15:06:46;101088.78;;;24.60;26.20
36304;BME280;22335;49.800;8.596;2023-05-18T15:13:31;101085.34;;;24.51;25.64
36304;BME280;22335;49.800;8.596;2023-05-18T15:20:15;101080.09;;;24.66;25.70
36304;BME280;22335;49.800;8.596;2023-05-18T15:26:58;101077.56;;;24.60;25.59
36304;BME280;22335;49.800;8.596;2023-05-18T15:33:45;101063.44;;;24.53;25.47
36304;BME280;22335;49.800;8.596;2023-05-18T15:40:28;101066.06;;;24.46;25.69
36304;BME280;22335;49.800;8.596;2023-05-18T15:47:12;101064.53;;;24.49;25.69
36304;BME280;22335;49.800;8.596;2023-05-18T15:53:57;101053.41;;;24.52;25.05
36304;BME280;22335;49.800;8.596;2023-05-18T16:00:41;101058.94;;;24.68;25.01
36304;BME280;22335;49.800;8.596;2023-05-18T16:07:26;101050.88;;;24.82;25.11
36304;BME280;22335;49.800;8.596;2023-05-18T16:14:10;101048.75;;;24.76;24.93
36304;BME280;22335;49.800;8.596;2023-05-18T16:20:54;101041.88;;;24.73;25.39
36304;BME280;22335;49.800;8.596;2023-05-18T16:27:37;101051.22;;;24.61;25.49
36304;BME280;22335;49.800;8.596;2023-05-18T16:34:22;101046.53;;;24.66;25.32
36304;BME280;22335;49.800;8.596;2023-05-18T16:41:06;101052.72;;;24.75;25.17
36304;BME280;22335;49.800;8.596;2023-05-18T16:47:49;101054.94;;;24.85;24.96
36304;BME280;22335;49.800;8.596;2023-05-18T16:54:34;101061.84;;;24.91;25.13
36304;BME280;22335;49.800;8.596;2023-05-18T17:01:18;101063.53;;;24.76;25.51
36304;BME280;22335;49.800;8.596;2023-05-18T17:08:07;101064.03;;;24.63;25.38
36304;BME280;22335;49.800;8.596;2023-05-18T17:14:52;101039.44;;;24.36;25.59
36304;BME280;22335;49.800;8.596;2023-05-18T17:21:36;101032.69;;;24.53;25.64
36304;BME280;22335;49.800;8.596;2023-05-18T17:28:21;101063.75;;;24.68;25.89
36304;BME280;22335;49.800;8.596;2023-05-18T17:35:07;101028.47;;;24.28;26.07
36304;BME280;22335;49.800;8.596;2023-05-18T17:41:51;101060.84;;;24.29;26.36
36304;BME280;22335;49.800;8.596;2023-05-18T17:48:35;101056.88;;;24.30;26.51
36304;BME280;22335;49.800;8.596;2023-05-18T17:55:20;101053.84;;;24.03;27.10
36304;BME280;22335;49.800;8.596;2023-05-18T18:02:04;101063.56;;;23.78;27.56
36304;BME280;22335;49.800;8.596;2023-05-18T18:08:49;101074.25;;;23.60;27.56
36304;BME280;22335;49.800;8.596;2023-05-18T18:15:35;101067.31;;;23.54;28.02
36304;BME280;22335;49.800;8.596;2023-05-18T18:22:18;101065.34;;;23.54;28.19
36304;BME280;22335;49.800;8.596;2023-05-18T18:29:02;101078.91;;;23.40;28.24
36304;BME280;22335;49.800;8.596;2023-05-18T18:35:47;101033.06;;;22.85;28.40
36304;BME280;22335;49.800;8.596;2023-05-18T18:42:31;101086.75;;;22.94;28.56
36304;BME280;22335;49.800;8.596;2023-05-18T18:49:14;101108.47;;;22.88;28.72
36304;BME280;22335;49.800;8.596;2023-05-18T18:55:59;101101.41;;;22.78;28.69
36304;BME280;22335;49.800;8.596;2023-05-18T19:02:43;101104.25;;;22.54;29.03
36304;BME280;22335;49.800;8.596;2023-05-18T19:09:26;101118.31;;;22.45;29.13
36304;BME280;22335;49.800;8.596;2023-05-18T19:16:14;101116.56;;;22.28;29.27
36304;BME280;22335;49.800;8.596;2023-05-18T19:22:58;101137.13;;;22.24;29.36
36304;BME280;22335;49.800;8.596;2023-05-18T19:29:41;101141.63;;;22.16;29.49
36304;BME280;22335;49.800;8.596;2023-05-18T19:36:26;101140.69;;;22.12;29.53
36304;BME280;22335;49.800;8.596;2023-05-18T19:43:10;101154.91;;;21.98;29.77
36304;BME280;22335;49.800;8.596;2023-05-18T19:49:53;101111.91;;;21.62;29.82
36304;BME280;22335;49.800;8.596;2023-05-18T19:56:40;101156.66;;;21.91;30.03
36304;BME280;22335;49.800;8.596;2023-05-18T20:03:23;101174.56;;;22.14;30.09
36304;BME280;22335;49.800;8.596;2023-05-18T20:10:08;101175.25;;;22.11;30.24
36304;BME280;22335;49.800;8.596;2023-05-18T20:16:53;101180.59;;;22.04;30.29
36304;BME280;22335;49.800;8.596;2023-05-18T20:23:40;101182.22;;;21.93;30.35
36304;BME280;22335;49.800;8.596;2023-05-18T20:30:27;101184.59;;;21.82;30.63
36304;BME280;22335;49.800;8.596;2023-05-18T20:37:12;101183.81;;;21.60;30.76
36304;BME280;22335;49.800;8.596;2023-05-18T20:43:56;101165.56;;;21.09;30.93
36304;BME280;22335;49.800;8.596;2023-05-18T20:50:43;101197.97;;;21.05;31.32
36304;BME280;22335;49.800;8.596;2023-05-18T20:57:28;101195.66;;;20.86;31.45
36304;BME280;22335;49.800;8.596;2023-05-18T21:04:11;101201.47;;;20.72;31.65
36304;BME280;22335;49.800;8.596;2023-05-18T21:10:55;101201.69;;;20.58;31.80
36304;BME280;22335;49.800;8.596;2023-05-18T21:17:40;101197.16;;;20.45;32.11
36304;BME280;22335;49.800;8.596;2023-05-18T21:24:23;101202.97;;;20.22;32.19
36304;BME280;22335;49.800;8.596;2023-05-18T21:31:07;101198.09;;;20.02;32.58
36304;BME280;22335;49.800;8.596;2023-05-18T21:37:52;101190.50;;;19.73;32.85
36304;BME280;22335;49.800;8.596;2023-05-18T21:44:35;101200.16;;;19.67;32.97
36304;BME280;22335;49.800;8.596;2023-05-18T21:51:19;101199.78;;;19.59;33.04
36304;BME280;22335;49.800;8.596;2023-05-18T21:58:04;101196.19;;;19.50;33.54
36304;BME280;22335;49.800;8.596;2023-05-18T22:04:47;101199.13;;;19.37;33.67
36304;BME280;22335;49.800;8.596;2023-05-18T22:11:30;101203.19;;;19.22;33.68
36304;BME280;22335;49.800;8.596;2023-05-18T22:18:15;101199.41;;;19.00;34.06
36304;BME280;22335;49.800;8.596;2023-05-18T22:24:59;101196.13;;;18.81;34.19
36304;BME280;22335;49.800;8.596;2023-05-18T22:31:43;101192.38;;;18.77;34.43
36304;BME280;22335;49.800;8.596;2023-05-18T22:38:27;101184.69;;;18.74;34.36
36304;BME280;22335;49.800;8.596;2023-05-18T22:45:11;101190.72;;;18.76;34.27
36304;BME280;22335;49.800;8.596;2023-05-18T22:51:54;101188.09;;;18.71;34.33
36304;BME280;22335;49.800;8.596;2023-05-18T22:58:39;101189.84;;;18.66;34.42
36304;BME280;22335;49.800;8.596;2023-05-18T23:05:23;101189.81;;;18.58;34.41
36304;BME280;22335;49.800;8.596;2023-05-18T23:12:08;101191.25;;;18.47;34.60
36304;BME280;22335;49.800;8.596;2023-05-18T23:18:53;101184.81;;;18.29;34.92
36304;BME280;22335;49.800;8.596;2023-05-18T23:25:41;101170.44;;;18.18;34.63
36304;BME280;22335;49.800;8.596;2023-05-18T23:32:25;101152.72;;;18.28;34.35
36304;BME280;22335;49.800;8.596;2023-05-18T23:39:11;101162.19;;;18.35;34.55
36304;BME280;22335;49.800;8.596;2023-05-18T23:45:56;101179.53;;;18.50;34.50
36304;BME280;22335;49.800;8.596;2023-05-18T23:52:40;101178.25;;;18.56;34.74
36304;BME280;22335;49.800;8.596;2023-05-18T23:59:27;101136.59;;;18.30;34.82
